Aviation Digital Data Service (ADDS)

Output produced by METARs form (0904 UTC 26 January 2020)
found at http://www.aviationweather.gov/metar/data/
 
METAR text: ROAH 260830Z 16010KT 9999 VCSH FEW006 BKN009 BKN035 23/22 Q1008 RMK 1ST006 5CU009 7SC035 A2977
Conditions at: ROAH (NAHA (CIV/JASDF), JP) observed 0830 UTC 26 January 2020
Temperature: 23.0°C (73°F)
Dewpoint: 22.0°C (72°F) [RH = 94%]
Pressure (altimeter): 29.76 inches Hg (1008.0 mb)
Winds: from the SSE (160 degrees) at 12 MPH (10 knots; 5.1 m/s)
Visibility: 6 or more miles (10+ km)
Ceiling: 900 feet AGL
Clouds: few clouds at 600 feet AGL
broken clouds at 900 feet AGL
broken clouds at 3500 feet AGL
Weather: VCSH  (showers in vicinity)

METAR text: ROAH 260800Z 15007KT 9999 -SHRA FEW006 SCT009 BKN035 23/22 Q1008 RMK 1ST006 3CU009 7SC035 A2977
Conditions at: ROAH (NAHA (CIV/JASDF), JP) observed 0800 UTC 26 January 2020
Temperature: 23.0°C (73°F)
Dewpoint: 22.0°C (72°F) [RH = 94%]
Pressure (altimeter): 29.76 inches Hg (1008.0 mb)
Winds: from the SSE (150 degrees) at 8 MPH (7 knots; 3.6 m/s)
Visibility: 6 or more miles (10+ km)
Ceiling: 3500 feet AGL
Clouds: few clouds at 600 feet AGL
scattered clouds at 900 feet AGL
broken clouds at 3500 feet AGL
Weather: -SHRA  (light rain showers)

METAR text: ROAH 260730Z 14009KT 9999 -SHRA SCT005 BKN009 23/22 Q1008 RMK 3ST005 6CU009 A2977
Conditions at: ROAH (NAHA (CIV/JASDF), JP) observed 0730 UTC 26 January 2020
Temperature: 23.0°C (73°F)
Dewpoint: 22.0°C (72°F) [RH = 94%]
Pressure (altimeter): 29.76 inches Hg (1008.0 mb)
Winds: from the SE (140 degrees) at 10 MPH (9 knots; 4.6 m/s)
Visibility: 6 or more miles (10+ km)
Ceiling: 900 feet AGL
Clouds: scattered clouds at 500 feet AGL
broken clouds at 900 feet AGL
Weather: -SHRA  (light rain showers)

METAR text: ROAH 260700Z 13011KT 9999 -SHRA SCT006 BKN009 23/22 Q1008 RMK 3ST006 6CU009 A2977
Conditions at: ROAH (NAHA (CIV/JASDF), JP) observed 0700 UTC 26 January 2020
Temperature: 23.0°C (73°F)
Dewpoint: 22.0°C (72°F) [RH = 94%]
Pressure (altimeter): 29.76 inches Hg (1008.0 mb)
Winds: from the SE (130 degrees) at 13 MPH (11 knots; 5.7 m/s)
Visibility: 6 or more miles (10+ km)
Ceiling: 900 feet AGL
Clouds: scattered clouds at 600 feet AGL
broken clouds at 900 feet AGL
Weather: -SHRA  (light rain showers)

METAR text: ROAH 260630Z 12011KT 9999 SCT007 BKN009 23/21 Q1008 RMK 3ST007 6CU009 A2977
Conditions at: ROAH (NAHA (CIV/JASDF), JP) observed 0630 UTC 26 January 2020
Temperature: 23.0°C (73°F)
Dewpoint: 21.0°C (70°F) [RH = 89%]
Pressure (altimeter): 29.76 inches Hg (1008.0 mb)
Winds: from the ESE (120 degrees) at 13 MPH (11 knots; 5.7 m/s)
Visibility: 6 or more miles (10+ km)
Ceiling: 900 feet AGL
Clouds: scattered clouds at 700 feet AGL
broken clouds at 900 feet AGL
Weather: no significant weather observed at this time

METAR text: ROAH 260600Z 12010KT 9999 FEW006 SCT008 BKN010 23/21 Q1008 RMK 1ST006 3ST008 6CU010 A2979
Conditions at: ROAH (NAHA (CIV/JASDF), JP) observed 0600 UTC 26 January 2020
Temperature: 23.0°C (73°F)
Dewpoint: 21.0°C (70°F) [RH = 89%]
Pressure (altimeter): 29.76 inches Hg (1008.0 mb)
Winds: from the ESE (120 degrees) at 12 MPH (10 knots; 5.1 m/s)
Visibility: 6 or more miles (10+ km)
Ceiling: 1000 feet AGL
Clouds: few clouds at 600 feet AGL
scattered clouds at 800 feet AGL
broken clouds at 1000 feet AGL
Weather: no significant weather observed at this time

METAR text: ROAH 260543Z 11013KT 9999 -SHRA FEW006 SCT008 BKN020 22/21 Q1009 RMK 2ST006 4ST008 5CU020 A2979
Conditions at: ROAH (NAHA (CIV/JASDF), JP) observed 0543 UTC 26 January 2020
Temperature: 22.0°C (72°F)
Dewpoint: 21.0°C (70°F) [RH = 94%]
Pressure (altimeter): 29.79 inches Hg (1009.0 mb)
Winds: from the ESE (110 degrees) at 15 MPH (13 knots; 6.7 m/s)
Visibility: 6 or more miles (10+ km)
Ceiling: 2000 feet AGL
Clouds: few clouds at 600 feet AGL
scattered clouds at 800 feet AGL
broken clouds at 2000 feet AGL
Weather: -SHRA  (light rain showers)

METAR text: ROAH 260530Z 11013KT 5000 -SHRA BR FEW005 BKN007 BKN015 22/21 Q1009 RMK 1ST005 5ST007 6CU015 A2980
Conditions at: ROAH (NAHA (CIV/JASDF), JP) observed 0530 UTC 26 January 2020
Temperature: 22.0°C (72°F)
Dewpoint: 21.0°C (70°F) [RH = 94%]
Pressure (altimeter): 29.79 inches Hg (1009.0 mb)
Winds: from the ESE (110 degrees) at 15 MPH (13 knots; 6.7 m/s)
Visibility: 3 miles ( 5 km)
Ceiling: 700 feet AGL
Clouds: few clouds at 500 feet AGL
broken clouds at 700 feet AGL
broken clouds at 1500 feet AGL
Weather: -SHRA BR  (light rain showers, mist)

METAR text: ROAH 260518Z 12015KT 4000 R18/P2000N -SHRA BR FEW005 BKN007 BKN015 22/21 Q1009 RMK 2ST005 5ST007 6CU015 A2980
Conditions at: ROAH (NAHA (CIV/JASDF), JP) observed 0518 UTC 26 January 2020
Temperature: 22.0°C (72°F)
Dewpoint: 21.0°C (70°F) [RH = 94%]
Pressure (altimeter): 29.79 inches Hg (1009.0 mb)
Winds: from the ESE (120 degrees) at 17 MPH (15 knots; 7.7 m/s)
Visibility: 2.49 miles (4.01 km)
Ceiling: 700 feet AGL
Clouds: few clouds at 500 feet AGL
broken clouds at 700 feet AGL
broken clouds at 1500 feet AGL
Weather: -SHRA BR  (light rain showers, mist)

METAR text: ROAH 260500Z 11015KT 6000 R18/2000N -SHRA FEW005 BKN007 BKN012 22/21 Q1009 RMK 2ST005 5ST007 6CU012 A2981
Conditions at: ROAH (NAHA (CIV/JASDF), JP) observed 0500 UTC 26 January 2020
Temperature: 22.0°C (72°F)
Dewpoint: 21.0°C (70°F) [RH = 94%]
Pressure (altimeter): 29.79 inches Hg (1009.0 mb)
Winds: from the ESE (110 degrees) at 17 MPH (15 knots; 7.7 m/s)
Visibility: 4 miles ( 6 km)
Ceiling: 700 feet AGL
Clouds: few clouds at 500 feet AGL
broken clouds at 700 feet AGL
broken clouds at 1200 feet AGL
Weather: -SHRA  (light rain showers)

METAR text: ROAH 260430Z 11012KT 4000 R18/2000N -SHRA BR FEW005 BKN007 BKN012 22/21 Q1010 RMK 2ST005 5ST007 6CU012 A2982
Conditions at: ROAH (NAHA (CIV/JASDF), JP) observed 0430 UTC 26 January 2020
Temperature: 22.0°C (72°F)
Dewpoint: 21.0°C (70°F) [RH = 94%]
Pressure (altimeter): 29.82 inches Hg (1010.0 mb)
Winds: from the ESE (110 degrees) at 14 MPH (12 knots; 6.2 m/s)
Visibility: 2.49 miles (4.01 km)
Ceiling: 700 feet AGL
Clouds: few clouds at 500 feet AGL
broken clouds at 700 feet AGL
broken clouds at 1200 feet AGL
Weather: -SHRA BR  (light rain showers, mist)

METAR text: ROAH 260424Z 12014KT 3000 R18/2000N -SHRA BR FEW004 BKN008 BKN012 22/21 Q1009 RMK 1ST004 5ST008 6CU012 A2982
Conditions at: ROAH (NAHA (CIV/JASDF), JP) observed 0424 UTC 26 January 2020
Temperature: 22.0°C (72°F)
Dewpoint: 21.0°C (70°F) [RH = 94%]
Pressure (altimeter): 29.79 inches Hg (1009.0 mb)
Winds: from the ESE (120 degrees) at 16 MPH (14 knots; 7.2 m/s)
Visibility: 1.86 miles (2.99 km)
Ceiling: 800 feet AGL
Clouds: few clouds at 400 feet AGL
broken clouds at 800 feet AGL
broken clouds at 1200 feet AGL
Weather: -SHRA BR  (light rain showers, mist)

METAR text: ROAH 260416Z 12015KT 2000 R18/1900N -SHRA BR SCT004 BKN007 BKN012 22/21 Q1010 RMK 3ST004 5ST007 6CU012 A2983
Conditions at: ROAH (NAHA (CIV/JASDF), JP) observed 0416 UTC 26 January 2020
Temperature: 22.0°C (72°F)
Dewpoint: 21.0°C (70°F) [RH = 94%]
Pressure (altimeter): 29.82 inches Hg (1010.0 mb)
Winds: from the ESE (120 degrees) at 17 MPH (15 knots; 7.7 m/s)
Visibility: 1.24 miles (2.00 km)
Ceiling: 700 feet AGL
Clouds: scattered clouds at 400 feet AGL
broken clouds at 700 feet AGL
broken clouds at 1200 feet AGL
Weather: -SHRA BR  (light rain showers, mist)

METAR text: ROAH 260407Z 12015G25KT 3000 R18/P2000N -SHRA BR FEW004 BKN008 BKN012 23/22 Q1010 RMK 1ST004 5ST008 7CU012 A2984
Conditions at: ROAH (NAHA (CIV/JASDF), JP) observed 0407 UTC 26 January 2020
Temperature: 23.0°C (73°F)
Dewpoint: 22.0°C (72°F) [RH = 94%]
Pressure (altimeter): 29.82 inches Hg (1010.0 mb)
Winds: from the ESE (120 degrees) at 17 MPH (15 knots; 7.7 m/s)
gusting to 29 MPH (25 knots; 12.9 m/s)
Visibility: 1.86 miles (2.99 km)
Ceiling: 800 feet AGL
Clouds: few clouds at 400 feet AGL
broken clouds at 800 feet AGL
broken clouds at 1200 feet AGL
Weather: -SHRA BR  (light rain showers, mist)

METAR text: ROAH 260400Z 11014KT 9999 -SHRA FEW004 BKN008 BKN012 23/22 Q1010 RMK 1ST004 5ST008 7CU012 A2984
Conditions at: ROAH (NAHA (CIV/JASDF), JP) observed 0400 UTC 26 January 2020
Temperature: 23.0°C (73°F)
Dewpoint: 22.0°C (72°F) [RH = 94%]
Pressure (altimeter): 29.82 inches Hg (1010.0 mb)
Winds: from the ESE (110 degrees) at 16 MPH (14 knots; 7.2 m/s)
Visibility: 6 or more miles (10+ km)
Ceiling: 800 feet AGL
Clouds: few clouds at 400 feet AGL
broken clouds at 800 feet AGL
broken clouds at 1200 feet AGL
Weather: -SHRA  (light rain showers)

METAR text: ROAH 260341Z 10011KT 060V140 2500 R18/1900N -SHRA BR BKN004 BKN007 22/22 Q1010 RMK 5ST004 7ST007 A2984
Conditions at: ROAH (NAHA (CIV/JASDF), JP) observed 0341 UTC 26 January 2020
Temperature: 22.0°C (72°F)
Dewpoint: 22.0°C (72°F) [RH = 100%]
Pressure (altimeter): 29.82 inches Hg (1010.0 mb)
Winds: from the E (100 degrees) at 13 MPH (11 knots; 5.7 m/s)
Visibility: 1.55 miles (2.49 km)
Ceiling: 400 feet AGL
Clouds: broken clouds at 400 feet AGL
broken clouds at 700 feet AGL
Weather: -SHRA BR  (light rain showers, mist)

METAR text: ROAH 260335Z 10011KT 3000 R18/1400VP2000N -SHRA BR BKN004 BKN007 23/22 Q1010 RMK 5ST004 7ST007 A2985
Conditions at: ROAH (NAHA (CIV/JASDF), JP) observed 0335 UTC 26 January 2020
Temperature: 23.0°C (73°F)
Dewpoint: 22.0°C (72°F) [RH = 94%]
Pressure (altimeter): 29.82 inches Hg (1010.0 mb)
Winds: from the E (100 degrees) at 13 MPH (11 knots; 5.7 m/s)
Visibility: 1.86 miles (2.99 km)
Ceiling: 400 feet AGL
Clouds: broken clouds at 400 feet AGL
broken clouds at 700 feet AGL
Weather: -SHRA BR  (light rain showers, mist)

METAR text: ROAH 260330Z 10012KT 2000 R18/1400VP2000N -SHRA BR BKN004 BKN007 23/22 Q1010 RMK 5ST004 7ST007 A2985
Conditions at: ROAH (NAHA (CIV/JASDF), JP) observed 0330 UTC 26 January 2020
Temperature: 23.0°C (73°F)
Dewpoint: 22.0°C (72°F) [RH = 94%]
Pressure (altimeter): 29.82 inches Hg (1010.0 mb)
Winds: from the E (100 degrees) at 14 MPH (12 knots; 6.2 m/s)
Visibility: 1.24 miles (2.00 km)
Ceiling: 400 feet AGL
Clouds: broken clouds at 400 feet AGL
broken clouds at 700 feet AGL
Weather: -SHRA BR  (light rain showers, mist)

METAR text: ROAH 260324Z 10012KT 2000 R18/1900N -SHRA BR BKN004 BKN007 23/22 Q1011 RMK 5ST004 7ST007 A2985
Conditions at: ROAH (NAHA (CIV/JASDF), JP) observed 0324 UTC 26 January 2020
Temperature: 23.0°C (73°F)
Dewpoint: 22.0°C (72°F) [RH = 94%]
Pressure (altimeter): 29.85 inches Hg (1011.0 mb)
Winds: from the E (100 degrees) at 14 MPH (12 knots; 6.2 m/s)
Visibility: 1.24 miles (2.00 km)
Ceiling: 400 feet AGL
Clouds: broken clouds at 400 feet AGL
broken clouds at 700 feet AGL
Weather: -SHRA BR  (light rain showers, mist)

METAR text: ROAH 260314Z 10011KT 050V120 3000 R18/1600VP2000N -SHRA BR BKN005 BKN007 22/21 Q1011 RMK 5ST005 7ST007 A2986
Conditions at: ROAH (NAHA (CIV/JASDF), JP) observed 0314 UTC 26 January 2020
Temperature: 22.0°C (72°F)
Dewpoint: 21.0°C (70°F) [RH = 94%]
Pressure (altimeter): 29.85 inches Hg (1011.0 mb)
Winds: from the E (100 degrees) at 13 MPH (11 knots; 5.7 m/s)
Visibility: 1.86 miles (2.99 km)
Ceiling: 500 feet AGL
Clouds: broken clouds at 500 feet AGL
broken clouds at 700 feet AGL
Weather: -SHRA BR  (light rain showers, mist)

METAR text: ROAH 260306Z 10012KT 3000 R18/P2000N -SHRA BR SCT005 BKN007 BKN012 22/21 Q1011 RMK 4ST005 6ST007 7CU012 A2987
Conditions at: ROAH (NAHA (CIV/JASDF), JP) observed 0306 UTC 26 January 2020
Temperature: 22.0°C (72°F)
Dewpoint: 21.0°C (70°F) [RH = 94%]
Pressure (altimeter): 29.85 inches Hg (1011.0 mb)
Winds: from the E (100 degrees) at 14 MPH (12 knots; 6.2 m/s)
Visibility: 1.86 miles (2.99 km)
Ceiling: 700 feet AGL
Clouds: scattered clouds at 500 feet AGL
broken clouds at 700 feet AGL
broken clouds at 1200 feet AGL
Weather: -SHRA BR  (light rain showers, mist)

METAR text: ROAH 260300Z 10013KT 4000 -SHRA BR SCT005 BKN007 BKN012 23/22 Q1011 RMK 4ST005 6ST007 7CU012 A2986
Conditions at: ROAH (NAHA (CIV/JASDF), JP) observed 0300 UTC 26 January 2020
Temperature: 23.0°C (73°F)
Dewpoint: 22.0°C (72°F) [RH = 94%]
Pressure (altimeter): 29.85 inches Hg (1011.0 mb)
Winds: from the E (100 degrees) at 15 MPH (13 knots; 6.7 m/s)
Visibility: 2.49 miles (4.01 km)
Ceiling: 700 feet AGL
Clouds: scattered clouds at 500 feet AGL
broken clouds at 700 feet AGL
broken clouds at 1200 feet AGL
Weather: -SHRA BR  (light rain showers, mist)

METAR text: ROAH 260246Z 11014KT 5000 R18/P2000N -SHRA FEW005 BKN007 BKN012 23/22 Q1011 RMK 2ST005 5ST007 7CU012 A2986 P/FR
Conditions at: ROAH (NAHA (CIV/JASDF), JP) observed 0246 UTC 26 January 2020
Temperature: 23.0°C (73°F)
Dewpoint: 22.0°C (72°F) [RH = 94%]
Pressure (altimeter): 29.85 inches Hg (1011.0 mb)
Winds: from the ESE (110 degrees) at 16 MPH (14 knots; 7.2 m/s)
Visibility: 3 miles ( 5 km)
Ceiling: 700 feet AGL
Clouds: few clouds at 500 feet AGL
broken clouds at 700 feet AGL
broken clouds at 1200 feet AGL
Weather: -SHRA  (light rain showers)

METAR text: ROAH 260230Z 11013KT 3000 R18/2000N -SHRA BR SCT005 BKN007 BKN012 23/22 Q1011 RMK 4ST005 6ST007 7CU012 A2987 P/FR
Conditions at: ROAH (NAHA (CIV/JASDF), JP) observed 0230 UTC 26 January 2020
Temperature: 23.0°C (73°F)
Dewpoint: 22.0°C (72°F) [RH = 94%]
Pressure (altimeter): 29.85 inches Hg (1011.0 mb)
Winds: from the ESE (110 degrees) at 15 MPH (13 knots; 6.7 m/s)
Visibility: 1.86 miles (2.99 km)
Ceiling: 700 feet AGL
Clouds: scattered clouds at 500 feet AGL
broken clouds at 700 feet AGL
broken clouds at 1200 feet AGL
Weather: -SHRA BR  (light rain showers, mist)

METAR text: ROAH 260219Z 11011KT 090V160 3000 R18/1100VP2000D -SHRA BR SCT005 BKN007 BKN012 22/21 Q1012 RMK 4ST005 6ST007 7CU012 A2990
Conditions at: ROAH (NAHA (CIV/JASDF), JP) observed 0219 UTC 26 January 2020
Temperature: 22.0°C (72°F)
Dewpoint: 21.0°C (70°F) [RH = 94%]
Pressure (altimeter): 29.88 inches Hg (1012.0 mb)
Winds: from the ESE (110 degrees) at 13 MPH (11 knots; 5.7 m/s)
Visibility: 1.86 miles (2.99 km)
Ceiling: 700 feet AGL
Clouds: scattered clouds at 500 feet AGL
broken clouds at 700 feet AGL
broken clouds at 1200 feet AGL
Weather: -SHRA BR  (light rain showers, mist)

METAR text: ROAH 260200Z 11012KT 4000 R18/2000N -SHRA FEW005 BKN008 BKN012 23/22 Q1012 RMK 1ST005 5ST008 7CU012 A2991
Conditions at: ROAH (NAHA (CIV/JASDF), JP) observed 0200 UTC 26 January 2020
Temperature: 23.0°C (73°F)
Dewpoint: 22.0°C (72°F) [RH = 94%]
Pressure (altimeter): 29.88 inches Hg (1012.0 mb)
Winds: from the ESE (110 degrees) at 14 MPH (12 knots; 6.2 m/s)
Visibility: 2.49 miles (4.01 km)
Ceiling: 800 feet AGL
Clouds: few clouds at 500 feet AGL
broken clouds at 800 feet AGL
broken clouds at 1200 feet AGL
Weather: -SHRA  (light rain showers)

METAR text: ROAH 260130Z 10012KT 9999 VCSH SCT008 BKN010 BKN080 23/21 Q1013 RMK 3ST008 5CU010 6AC080 A2991
Conditions at: ROAH (NAHA (CIV/JASDF), JP) observed 0130 UTC 26 January 2020
Temperature: 23.0°C (73°F)
Dewpoint: 21.0°C (70°F) [RH = 89%]
Pressure (altimeter): 29.91 inches Hg (1013.0 mb)
Winds: from the E (100 degrees) at 14 MPH (12 knots; 6.2 m/s)
Visibility: 6 or more miles (10+ km)
Ceiling: 1000 feet AGL
Clouds: scattered clouds at 800 feet AGL
broken clouds at 1000 feet AGL
broken clouds at 8000 feet AGL
Weather: VCSH  (showers in vicinity)

METAR text: ROAH 260100Z 11009KT 070V130 9999 VCSH BKN012 BKN080 24/21 Q1013 RMK 5CU012 6AC080 A2994
Conditions at: ROAH (NAHA (CIV/JASDF), JP) observed 0100 UTC 26 January 2020
Temperature: 24.0°C (75°F)
Dewpoint: 21.0°C (70°F) [RH = 83%]
Pressure (altimeter): 29.91 inches Hg (1013.0 mb)
Winds: from the ESE (110 degrees) at 10 MPH (9 knots; 4.6 m/s)
Visibility: 6 or more miles (10+ km)
Ceiling: 1200 feet AGL
Clouds: broken clouds at 1200 feet AGL
broken clouds at 8000 feet AGL
Weather: VCSH  (showers in vicinity)

METAR text: ROAH 260030Z 09008KT 9999 SCT013 BKN080 23/21 Q1013 RMK 3CU013 6AC080 A2994
Conditions at: ROAH (NAHA (CIV/JASDF), JP) observed 0030 UTC 26 January 2020
Temperature: 23.0°C (73°F)
Dewpoint: 21.0°C (70°F) [RH = 89%]
Pressure (altimeter): 29.91 inches Hg (1013.0 mb)
Winds: from the E (90 degrees) at 9 MPH (8 knots; 4.1 m/s)
Visibility: 6 or more miles (10+ km)
Ceiling: 8000 feet AGL
Clouds: scattered clouds at 1300 feet AGL
broken clouds at 8000 feet AGL
Weather: no significant weather observed at this time

METAR text: ROAH 260000Z 11010KT 9999 -SHRA SCT010 BKN080 23/21 Q1013 RMK 3CU010 6AC080 A2993
Conditions at: ROAH (NAHA (CIV/JASDF), JP) observed 0000 UTC 26 January 2020
Temperature: 23.0°C (73°F)
Dewpoint: 21.0°C (70°F) [RH = 89%]
Pressure (altimeter): 29.91 inches Hg (1013.0 mb)
Winds: from the ESE (110 degrees) at 12 MPH (10 knots; 5.1 m/s)
Visibility: 6 or more miles (10+ km)
Ceiling: 8000 feet AGL
Clouds: scattered clouds at 1000 feet AGL
broken clouds at 8000 feet AGL
Weather: -SHRA  (light rain showers)

METAR text: ROAH 252330Z 08008KT 9999 SCT010 BKN090 23/21 Q1013 RMK 3CU010 6AC090 A2992
Conditions at: ROAH (NAHA (CIV/JASDF), JP) observed 2330 UTC 25 January 2020
Temperature: 23.0°C (73°F)
Dewpoint: 21.0°C (70°F) [RH = 89%]
Pressure (altimeter): 29.91 inches Hg (1013.0 mb)
Winds: from the E (80 degrees) at 9 MPH (8 knots; 4.1 m/s)
Visibility: 6 or more miles (10+ km)
Ceiling: 9000 feet AGL
Clouds: scattered clouds at 1000 feet AGL
broken clouds at 9000 feet AGL
Weather: no significant weather observed at this time

METAR text: ROAH 252300Z 09006KT 9999 FEW010 SCT090 BKN180 23/21 Q1014 RMK 2CU010 4AC090 6AC180 A2995
Conditions at: ROAH (NAHA (CIV/JASDF), JP) observed 2300 UTC 25 January 2020
Temperature: 23.0°C (73°F)
Dewpoint: 21.0°C (70°F) [RH = 89%]
Pressure (altimeter): 29.94 inches Hg (1014.0 mb)
Winds: from the E (90 degrees) at 7 MPH (6 knots; 3.1 m/s)
Visibility: 6 or more miles (10+ km)
Ceiling: 18000 feet AGL
Clouds: few clouds at 1000 feet AGL
scattered clouds at 9000 feet AGL
broken clouds at 18000 feet AGL
Weather: no significant weather observed at this time

METAR text: ROAH 252230Z 09004KT 360V130 9999 SCT010 BKN090 23/21 Q1014 RMK 3CU010 7AC090 A2996
Conditions at: ROAH (NAHA (CIV/JASDF), JP) observed 2230 UTC 25 January 2020
Temperature: 23.0°C (73°F)
Dewpoint: 21.0°C (70°F) [RH = 89%]
Pressure (altimeter): 29.94 inches Hg (1014.0 mb)
Winds: from the E (90 degrees) at 5 MPH (4 knots; 2.1 m/s)
Visibility: 6 or more miles (10+ km)
Ceiling: 9000 feet AGL
Clouds: scattered clouds at 1000 feet AGL
broken clouds at 9000 feet AGL
Weather: no significant weather observed at this time

METAR text: ROAH 252200Z 10007KT 9999 SCT010 BKN090 23/21 Q1014 RMK 4CU010 6AC090 A2995
Conditions at: ROAH (NAHA (CIV/JASDF), JP) observed 2200 UTC 25 January 2020
Temperature: 23.0°C (73°F)
Dewpoint: 21.0°C (70°F) [RH = 89%]
Pressure (altimeter): 29.94 inches Hg (1014.0 mb)
Winds: from the E (100 degrees) at 8 MPH (7 knots; 3.6 m/s)
Visibility: 6 or more miles (10+ km)
Ceiling: 9000 feet AGL
Clouds: scattered clouds at 1000 feet AGL
broken clouds at 9000 feet AGL
Weather: no significant weather observed at this time

METAR text: ROAH 252130Z 08008KT 9999 SCT010 BKN220 22/21 Q1014 RMK 4CU010 6AC220 A2994
Conditions at: ROAH (NAHA (CIV/JASDF), JP) observed 2130 UTC 25 January 2020
Temperature: 22.0°C (72°F)
Dewpoint: 21.0°C (70°F) [RH = 94%]
Pressure (altimeter): 29.94 inches Hg (1014.0 mb)
Winds: from the E (80 degrees) at 9 MPH (8 knots; 4.1 m/s)
Visibility: 6 or more miles (10+ km)
Ceiling: 22000 feet AGL
Clouds: scattered clouds at 1000 feet AGL
broken clouds at 22000 feet AGL
Weather: no significant weather observed at this time

METAR text: ROAH 252100Z 09010KT 9999 SCT010 BKN220 22/21 Q1013 RMK 4CU010 6AC220 A2994
Conditions at: ROAH (NAHA (CIV/JASDF), JP) observed 2100 UTC 25 January 2020
Temperature: 22.0°C (72°F)
Dewpoint: 21.0°C (70°F) [RH = 94%]
Pressure (altimeter): 29.91 inches Hg (1013.0 mb)
Winds: from the E (90 degrees) at 12 MPH (10 knots; 5.1 m/s)
Visibility: 6 or more miles (10+ km)
Ceiling: 22000 feet AGL
Clouds: scattered clouds at 1000 feet AGL
broken clouds at 22000 feet AGL
Weather: no significant weather observed at this time

METAR text: ROAH 252030Z 08008KT 9999 SCT010 BKN220 22/21 Q1014 RMK 4CU010 6AC220 A2995
Conditions at: ROAH (NAHA (CIV/JASDF), JP) observed 2030 UTC 25 January 2020
Temperature: 22.0°C (72°F)
Dewpoint: 21.0°C (70°F) [RH = 94%]
Pressure (altimeter): 29.94 inches Hg (1014.0 mb)
Winds: from the E (80 degrees) at 9 MPH (8 knots; 4.1 m/s)
Visibility: 6 or more miles (10+ km)
Ceiling: 22000 feet AGL
Clouds: scattered clouds at 1000 feet AGL
broken clouds at 22000 feet AGL
Weather: no significant weather observed at this time

METAR text: ROAH 252000Z 08007KT 9999 FEW010 BKN220 22/20 Q1013 RMK 2CU010 6AC220 A2994
Conditions at: ROAH (NAHA (CIV/JASDF), JP) observed 2000 UTC 25 January 2020
Temperature: 22.0°C (72°F)
Dewpoint: 20.0°C (68°F) [RH = 88%]
Pressure (altimeter): 29.91 inches Hg (1013.0 mb)
Winds: from the E (80 degrees) at 8 MPH (7 knots; 3.6 m/s)
Visibility: 6 or more miles (10+ km)
Ceiling: 22000 feet AGL
Clouds: few clouds at 1000 feet AGL
broken clouds at 22000 feet AGL
Weather: no significant weather observed at this time

METAR text: ROAH 251930Z 06007KT 9999 FEW010 BKN220 22/21 Q1014 RMK 1CU010 5AC220 A2995
Conditions at: ROAH (NAHA (CIV/JASDF), JP) observed 1930 UTC 25 January 2020
Temperature: 22.0°C (72°F)
Dewpoint: 21.0°C (70°F) [RH = 94%]
Pressure (altimeter): 29.94 inches Hg (1014.0 mb)
Winds: from the ENE (60 degrees) at 8 MPH (7 knots; 3.6 m/s)
Visibility: 6 or more miles (10+ km)
Ceiling: 22000 feet AGL
Clouds: few clouds at 1000 feet AGL
broken clouds at 22000 feet AGL
Weather: no significant weather observed at this time

METAR text: ROAH 251900Z 06005KT 9999 FEW010 BKN220 22/20 Q1015 RMK 1CU010 5AC220 A2998
Conditions at: ROAH (NAHA (CIV/JASDF), JP) observed 1900 UTC 25 January 2020
Temperature: 22.0°C (72°F)
Dewpoint: 20.0°C (68°F) [RH = 88%]
Pressure (altimeter): 29.97 inches Hg (1015.0 mb)
Winds: from the ENE (60 degrees) at 6 MPH (5 knots; 2.6 m/s)
Visibility: 6 or more miles (10+ km)
Ceiling: 22000 feet AGL
Clouds: few clouds at 1000 feet AGL
broken clouds at 22000 feet AGL
Weather: no significant weather observed at this time

METAR text: ROAH 251830Z 07006KT 9999 FEW010 SCT220 22/21 Q1015 RMK 1CU010 4AC220 A2998
Conditions at: ROAH (NAHA (CIV/JASDF), JP) observed 1830 UTC 25 January 2020
Temperature: 22.0°C (72°F)
Dewpoint: 21.0°C (70°F) [RH = 94%]
Pressure (altimeter): 29.97 inches Hg (1015.0 mb)
Winds: from the ENE (70 degrees) at 7 MPH (6 knots; 3.1 m/s)
Visibility: 6 or more miles (10+ km)
Ceiling: at least 12,000 feet AGL
Clouds: few clouds at 1000 feet AGL
scattered clouds at 22000 feet AGL
Weather: no significant weather observed at this time

METAR text: ROAH 251800Z 05005KT 9999 FEW010 SCT090 BKN220 22/21 Q1015 RMK 1CU010 3AC090 6AC220 A3000
Conditions at: ROAH (NAHA (CIV/JASDF), JP) observed 1800 UTC 25 January 2020
Temperature: 22.0°C (72°F)
Dewpoint: 21.0°C (70°F) [RH = 94%]
Pressure (altimeter): 29.97 inches Hg (1015.0 mb)
Winds: from the NE (50 degrees) at 6 MPH (5 knots; 2.6 m/s)
Visibility: 6 or more miles (10+ km)
Ceiling: 22000 feet AGL
Clouds: few clouds at 1000 feet AGL
scattered clouds at 9000 feet AGL
broken clouds at 22000 feet AGL
Weather: no significant weather observed at this time

METAR text: ROAH 251730Z 07005KT 9999 FEW010 SCT090 BKN170 23/21 Q1016 RMK 1CU010 4AC090 6AC170 A3001
Conditions at: ROAH (NAHA (CIV/JASDF), JP) observed 1730 UTC 25 January 2020
Temperature: 23.0°C (73°F)
Dewpoint: 21.0°C (70°F) [RH = 89%]
Pressure (altimeter): 30.00 inches Hg (1016.0 mb)
Winds: from the ENE (70 degrees) at 6 MPH (5 knots; 2.6 m/s)
Visibility: 6 or more miles (10+ km)
Ceiling: 17000 feet AGL
Clouds: few clouds at 1000 feet AGL
scattered clouds at 9000 feet AGL
broken clouds at 17000 feet AGL
Weather: no significant weather observed at this time

METAR text: ROAH 251700Z 08003KT 9999 FEW010 SCT090 BKN170 23/21 Q1016 RMK 2CU010 3AC090 6AC170 A3002
Conditions at: ROAH (NAHA (CIV/JASDF), JP) observed 1700 UTC 25 January 2020
Temperature: 23.0°C (73°F)
Dewpoint: 21.0°C (70°F) [RH = 89%]
Pressure (altimeter): 30.00 inches Hg (1016.0 mb)
Winds: from the E (80 degrees) at 3 MPH (3 knots; 1.5 m/s)
Visibility: 6 or more miles (10+ km)
Ceiling: 17000 feet AGL
Clouds: few clouds at 1000 feet AGL
scattered clouds at 9000 feet AGL
broken clouds at 17000 feet AGL
Weather: no significant weather observed at this time

METAR text: ROAH 251630Z 06004KT 9999 FEW010 SCT100 BKN170 23/21 Q1016 RMK 2CU010 3AC100 6AC170 A3002
Conditions at: ROAH (NAHA (CIV/JASDF), JP) observed 1630 UTC 25 January 2020
Temperature: 23.0°C (73°F)
Dewpoint: 21.0°C (70°F) [RH = 89%]
Pressure (altimeter): 30.00 inches Hg (1016.0 mb)
Winds: from the ENE (60 degrees) at 5 MPH (4 knots; 2.1 m/s)
Visibility: 6 or more miles (10+ km)
Ceiling: 17000 feet AGL
Clouds: few clouds at 1000 feet AGL
scattered clouds at 10000 feet AGL
broken clouds at 17000 feet AGL
Weather: no significant weather observed at this time

METAR text: ROAH 251600Z 08003KT 050V110 9999 FEW010 SCT100 BKN170 23/21 Q1017 RMK 1CU010 3AC100 6AC170 A3004
Conditions at: ROAH (NAHA (CIV/JASDF), JP) observed 1600 UTC 25 January 2020
Temperature: 23.0°C (73°F)
Dewpoint: 21.0°C (70°F) [RH = 89%]
Pressure (altimeter): 30.03 inches Hg (1017.0 mb)
Winds: from the E (80 degrees) at 3 MPH (3 knots; 1.5 m/s)
Visibility: 6 or more miles (10+ km)
Ceiling: 17000 feet AGL
Clouds: few clouds at 1000 feet AGL
scattered clouds at 10000 feet AGL
broken clouds at 17000 feet AGL
Weather: no significant weather observed at this time

METAR text: ROAH 251530Z 11004KT 9999 FEW010 BKN170 23/21 Q1017 RMK 1CU010 6AC170 A3004
Conditions at: ROAH (NAHA (CIV/JASDF), JP) observed 1530 UTC 25 January 2020
Temperature: 23.0°C (73°F)
Dewpoint: 21.0°C (70°F) [RH = 89%]
Pressure (altimeter): 30.03 inches Hg (1017.0 mb)
Winds: from the ESE (110 degrees) at 5 MPH (4 knots; 2.1 m/s)
Visibility: 6 or more miles (10+ km)
Ceiling: 17000 feet AGL
Clouds: few clouds at 1000 feet AGL
broken clouds at 17000 feet AGL
Weather: no significant weather observed at this time

METAR text: ROAH 251500Z 10006KT 9999 FEW010 SCT090 BKN190 23/21 Q1017 RMK 1CU010 3AC090 6AC190 A3004
Conditions at: ROAH (NAHA (CIV/JASDF), JP) observed 1500 UTC 25 January 2020
Temperature: 23.0°C (73°F)
Dewpoint: 21.0°C (70°F) [RH = 89%]
Pressure (altimeter): 30.03 inches Hg (1017.0 mb)
Winds: from the E (100 degrees) at 7 MPH (6 knots; 3.1 m/s)
Visibility: 6 or more miles (10+ km)
Ceiling: 19000 feet AGL
Clouds: few clouds at 1000 feet AGL
scattered clouds at 9000 feet AGL
broken clouds at 19000 feet AGL
Weather: no significant weather observed at this time

METAR text: ROAH 251430Z 11003KT 9999 FEW010 SCT090 BKN190 23/21 Q1017 RMK 2CU010 3AC090 6AC190 A3006
Conditions at: ROAH (NAHA (CIV/JASDF), JP) observed 1430 UTC 25 January 2020
Temperature: 23.0°C (73°F)
Dewpoint: 21.0°C (70°F) [RH = 89%]
Pressure (altimeter): 30.03 inches Hg (1017.0 mb)
Winds: from the ESE (110 degrees) at 3 MPH (3 knots; 1.5 m/s)
Visibility: 6 or more miles (10+ km)
Ceiling: 19000 feet AGL
Clouds: few clouds at 1000 feet AGL
scattered clouds at 9000 feet AGL
broken clouds at 19000 feet AGL
Weather: no significant weather observed at this time

METAR text: ROAH 251400Z 13005KT 9999 FEW010 SCT100 BKN200 22/21 Q1018 RMK 1CU010 3AC100 6AC200 A3007
Conditions at: ROAH (NAHA (CIV/JASDF), JP) observed 1400 UTC 25 January 2020
Temperature: 22.0°C (72°F)
Dewpoint: 21.0°C (70°F) [RH = 94%]
Pressure (altimeter): 30.06 inches Hg (1018.0 mb)
Winds: from the SE (130 degrees) at 6 MPH (5 knots; 2.6 m/s)
Visibility: 6 or more miles (10+ km)
Ceiling: 20000 feet AGL
Clouds: few clouds at 1000 feet AGL
scattered clouds at 10000 feet AGL
broken clouds at 20000 feet AGL
Weather: no significant weather observed at this time

METAR text: ROAH 251330Z VRB05KT 9999 FEW010 SCT100 BKN200 22/20 Q1018 RMK 1CU010 3AC100 6AC200 A3007
Conditions at: ROAH (NAHA (CIV/JASDF), JP) observed 1330 UTC 25 January 2020
Temperature: 22.0°C (72°F)
Dewpoint: 20.0°C (68°F) [RH = 88%]
Pressure (altimeter): 30.06 inches Hg (1018.0 mb)
Winds: variable direction winds at 6 MPH (5 knots; 2.6 m/s)
Visibility: 6 or more miles (10+ km)
Ceiling: 20000 feet AGL
Clouds: few clouds at 1000 feet AGL
scattered clouds at 10000 feet AGL
broken clouds at 20000 feet AGL
Weather: no significant weather observed at this time

METAR text: ROAH 251300Z 10005KT 9999 FEW010 SCT100 BKN200 23/20 Q1017 RMK 1CU010 3AC100 6AC200 A3006
Conditions at: ROAH (NAHA (CIV/JASDF), JP) observed 1300 UTC 25 January 2020
Temperature: 23.0°C (73°F)
Dewpoint: 20.0°C (68°F) [RH = 83%]
Pressure (altimeter): 30.03 inches Hg (1017.0 mb)
Winds: from the E (100 degrees) at 6 MPH (5 knots; 2.6 m/s)
Visibility: 6 or more miles (10+ km)
Ceiling: 20000 feet AGL
Clouds: few clouds at 1000 feet AGL
scattered clouds at 10000 feet AGL
broken clouds at 20000 feet AGL
Weather: no significant weather observed at this time

METAR text: ROAH 251230Z 11007KT 9999 FEW010 BKN200 23/20 Q1017 RMK 1CU010 6AC200 A3005
Conditions at: ROAH (NAHA (CIV/JASDF), JP) observed 1230 UTC 25 January 2020
Temperature: 23.0°C (73°F)
Dewpoint: 20.0°C (68°F) [RH = 83%]
Pressure (altimeter): 30.03 inches Hg (1017.0 mb)
Winds: from the ESE (110 degrees) at 8 MPH (7 knots; 3.6 m/s)
Visibility: 6 or more miles (10+ km)
Ceiling: 20000 feet AGL
Clouds: few clouds at 1000 feet AGL
broken clouds at 20000 feet AGL
Weather: no significant weather observed at this time

METAR text: ROAH 251200Z 12005KT 9999 FEW014 BKN220 23/20 Q1018 RMK 2CU014 6AC220 A3008
Conditions at: ROAH (NAHA (CIV/JASDF), JP) observed 1200 UTC 25 January 2020
Temperature: 23.0°C (73°F)
Dewpoint: 20.0°C (68°F) [RH = 83%]
Pressure (altimeter): 30.06 inches Hg (1018.0 mb)
Winds: from the ESE (120 degrees) at 6 MPH (5 knots; 2.6 m/s)
Visibility: 6 or more miles (10+ km)
Ceiling: 22000 feet AGL
Clouds: few clouds at 1400 feet AGL
broken clouds at 22000 feet AGL
Weather: no significant weather observed at this time

METAR text: ROAH 251130Z 11004KT 9999 FEW014 SCT070 BKN/// 23/20 Q1018
Conditions at: ROAH (NAHA (CIV/JASDF), JP) observed 1130 UTC 25 January 2020
Temperature: 23.0°C (73°F)
Dewpoint: 20.0°C (68°F) [RH = 83%]
Pressure (altimeter): 30.06 inches Hg (1018.0 mb)
Winds: from the ESE (110 degrees) at 5 MPH (4 knots; 2.1 m/s)
Visibility: 6 or more miles (10+ km)
Ceiling: at least 12,000 feet AGL
Clouds: few clouds at 1400 feet AGL
scattered clouds at 7000 feet AGL
Weather: no significant weather observed at this time

METAR text: ROAH 251100Z 11007KT 070V150 9999 FEW014 BKN070 23/20 Q1018 RMK 2CU014 6AC070 A3006
Conditions at: ROAH (NAHA (CIV/JASDF), JP) observed 1100 UTC 25 January 2020
Temperature: 23.0°C (73°F)
Dewpoint: 20.0°C (68°F) [RH = 83%]
Pressure (altimeter): 30.06 inches Hg (1018.0 mb)
Winds: from the ESE (110 degrees) at 8 MPH (7 knots; 3.6 m/s)
Visibility: 6 or more miles (10+ km)
Ceiling: 7000 feet AGL
Clouds: few clouds at 1400 feet AGL
broken clouds at 7000 feet AGL
Weather: no significant weather observed at this time

METAR text: ROAH 251030Z VRB07KT 9999 SCT014 BKN070 23/20 Q1017 RMK 3CU014 7AC070 A3006
Conditions at: ROAH (NAHA (CIV/JASDF), JP) observed 1030 UTC 25 January 2020
Temperature: 23.0°C (73°F)
Dewpoint: 20.0°C (68°F) [RH = 83%]
Pressure (altimeter): 30.03 inches Hg (1017.0 mb)
Winds: variable direction winds at 8 MPH (7 knots; 3.6 m/s)
Visibility: 6 or more miles (10+ km)
Ceiling: 7000 feet AGL
Clouds: scattered clouds at 1400 feet AGL
broken clouds at 7000 feet AGL
Weather: no significant weather observed at this time

METAR text: ROAH 251000Z 11006KT 9999 FEW020 BKN070 23/20 Q1017 RMK 1CU020 6AC070 A3006
Conditions at: ROAH (NAHA (CIV/JASDF), JP) observed 1000 UTC 25 January 2020
Temperature: 23.0°C (73°F)
Dewpoint: 20.0°C (68°F) [RH = 83%]
Pressure (altimeter): 30.03 inches Hg (1017.0 mb)
Winds: from the ESE (110 degrees) at 7 MPH (6 knots; 3.1 m/s)
Visibility: 6 or more miles (10+ km)
Ceiling: 7000 feet AGL
Clouds: few clouds at 2000 feet AGL
broken clouds at 7000 feet AGL
Weather: no significant weather observed at this time

METAR text: ROAH 250930Z 12008KT 9999 FEW020 SCT070 BKN/// 23/20 Q1017
Conditions at: ROAH (NAHA (CIV/JASDF), JP) observed 0930 UTC 25 January 2020
Temperature: 23.0°C (73°F)
Dewpoint: 20.0°C (68°F) [RH = 83%]
Pressure (altimeter): 30.03 inches Hg (1017.0 mb)
Winds: from the ESE (120 degrees) at 9 MPH (8 knots; 4.1 m/s)
Visibility: 6 or more miles (10+ km)
Ceiling: at least 12,000 feet AGL
Clouds: few clouds at 2000 feet AGL
scattered clouds at 7000 feet AGL
Weather: no significant weather observed at this time

METAR text: ROAH 250900Z 11010KT 9999 FEW020 BKN/// 23/19 Q1017 RMK 1CU020 A3004
Conditions at: ROAH (NAHA (CIV/JASDF), JP) observed 0900 UTC 25 January 2020
Temperature: 23.0°C (73°F)
Dewpoint: 19.0°C (66°F) [RH = 78%]
Pressure (altimeter): 30.03 inches Hg (1017.0 mb)
Winds: from the ESE (110 degrees) at 12 MPH (10 knots; 5.1 m/s)
Visibility: 6 or more miles (10+ km)
Ceiling: at least 12,000 feet AGL
Clouds: few clouds at 2000 feet AGL
Weather: no significant weather observed at this time

METAR text: ROAH 250830Z 12011KT 9999 FEW020 BKN/// 24/18 Q1017 RMK 1CU020 A3003
Conditions at: ROAH (NAHA (CIV/JASDF), JP) observed 0830 UTC 25 January 2020
Temperature: 24.0°C (75°F)
Dewpoint: 18.0°C (64°F) [RH = 69%]
Pressure (altimeter): 30.03 inches Hg (1017.0 mb)
Winds: from the ESE (120 degrees) at 13 MPH (11 knots; 5.7 m/s)
Visibility: 6 or more miles (10+ km)
Ceiling: at least 12,000 feet AGL
Clouds: few clouds at 2000 feet AGL
Weather: no significant weather observed at this time

METAR text: ROAH 250800Z 12012KT 9999 FEW020 BKN/// 25/18 Q1016 RMK 1CU020 A3003
Conditions at: ROAH (NAHA (CIV/JASDF), JP) observed 0800 UTC 25 January 2020
Temperature: 25.0°C (77°F)
Dewpoint: 18.0°C (64°F) [RH = 65%]
Pressure (altimeter): 30.00 inches Hg (1016.0 mb)
Winds: from the ESE (120 degrees) at 14 MPH (12 knots; 6.2 m/s)
Visibility: 6 or more miles (10+ km)
Ceiling: at least 12,000 feet AGL
Clouds: few clouds at 2000 feet AGL
Weather: no significant weather observed at this time

METAR text: ROAH 250730Z 11013KT 9999 FEW020 BKN/// 25/17 Q1016 RMK 1CU020 A3002
Conditions at: ROAH (NAHA (CIV/JASDF), JP) observed 0730 UTC 25 January 2020
Temperature: 25.0°C (77°F)
Dewpoint: 17.0°C (63°F) [RH = 61%]
Pressure (altimeter): 30.00 inches Hg (1016.0 mb)
Winds: from the ESE (110 degrees) at 15 MPH (13 knots; 6.7 m/s)
Visibility: 6 or more miles (10+ km)
Ceiling: at least 12,000 feet AGL
Clouds: few clouds at 2000 feet AGL
Weather: no significant weather observed at this time

METAR text: ROAH 250700Z 11012KT 9999 FEW020 BKN/// 26/17 Q1016 RMK 1CU020 A3002
Conditions at: ROAH (NAHA (CIV/JASDF), JP) observed 0700 UTC 25 January 2020
Temperature: 26.0°C (79°F)
Dewpoint: 17.0°C (63°F) [RH = 58%]
Pressure (altimeter): 30.00 inches Hg (1016.0 mb)
Winds: from the ESE (110 degrees) at 14 MPH (12 knots; 6.2 m/s)
Visibility: 6 or more miles (10+ km)
Ceiling: at least 12,000 feet AGL
Clouds: few clouds at 2000 feet AGL
Weather: no significant weather observed at this time

METAR text: ROAH 250630Z 12013KT 9999 FEW020 BKN/// 26/17 Q1016 RMK 1CU020 A3003
Conditions at: ROAH (NAHA (CIV/JASDF), JP) observed 0630 UTC 25 January 2020
Temperature: 26.0°C (79°F)
Dewpoint: 17.0°C (63°F) [RH = 58%]
Pressure (altimeter): 30.00 inches Hg (1016.0 mb)
Winds: from the ESE (120 degrees) at 15 MPH (13 knots; 6.7 m/s)
Visibility: 6 or more miles (10+ km)
Ceiling: at least 12,000 feet AGL
Clouds: few clouds at 2000 feet AGL
Weather: no significant weather observed at this time

METAR text: ROAH 250600Z 12013KT 090V150 9999 FEW020 BKN/// 27/17 Q1017 RMK 1CU020 A3004
Conditions at: ROAH (NAHA (CIV/JASDF), JP) observed 0600 UTC 25 January 2020
Temperature: 27.0°C (81°F)
Dewpoint: 17.0°C (63°F) [RH = 54%]
Pressure (altimeter): 30.03 inches Hg (1017.0 mb)
Winds: from the ESE (120 degrees) at 15 MPH (13 knots; 6.7 m/s)
Visibility: 6 or more miles (10+ km)
Ceiling: at least 12,000 feet AGL
Clouds: few clouds at 2000 feet AGL
Weather: no significant weather observed at this time

METAR text: ROAH 250530Z 12014KT 9999 FEW020 BKN/// 27/16 Q1017 RMK 1CU020 A3004
Conditions at: ROAH (NAHA (CIV/JASDF), JP) observed 0530 UTC 25 January 2020
Temperature: 27.0°C (81°F)
Dewpoint: 16.0°C (61°F) [RH = 51%]
Pressure (altimeter): 30.03 inches Hg (1017.0 mb)
Winds: from the ESE (120 degrees) at 16 MPH (14 knots; 7.2 m/s)
Visibility: 6 or more miles (10+ km)
Ceiling: at least 12,000 feet AGL
Clouds: few clouds at 2000 feet AGL
Weather: no significant weather observed at this time

METAR text: ROAH 250500Z 12012KT 9999 FEW020 BKN/// 27/17 Q1017 RMK 1CU020 A3005
Conditions at: ROAH (NAHA (CIV/JASDF), JP) observed 0500 UTC 25 January 2020
Temperature: 27.0°C (81°F)
Dewpoint: 17.0°C (63°F) [RH = 54%]
Pressure (altimeter): 30.03 inches Hg (1017.0 mb)
Winds: from the ESE (120 degrees) at 14 MPH (12 knots; 6.2 m/s)
Visibility: 6 or more miles (10+ km)
Ceiling: at least 12,000 feet AGL
Clouds: few clouds at 2000 feet AGL
Weather: no significant weather observed at this time

METAR text: ROAH 250430Z 12014KT 9999 FEW020 BKN/// 27/18 Q1017
Conditions at: ROAH (NAHA (CIV/JASDF), JP) observed 0430 UTC 25 January 2020
Temperature: 27.0°C (81°F)
Dewpoint: 18.0°C (64°F) [RH = 58%]
Pressure (altimeter): 30.03 inches Hg (1017.0 mb)
Winds: from the ESE (120 degrees) at 16 MPH (14 knots; 7.2 m/s)
Visibility: 6 or more miles (10+ km)
Ceiling: at least 12,000 feet AGL
Clouds: few clouds at 2000 feet AGL
Weather: no significant weather observed at this time

METAR text: ROAH 250400Z 12013KT 090V160 9999 FEW020 BKN/// 26/20 Q1018 RMK 1CU020 A3006
Conditions at: ROAH (NAHA (CIV/JASDF), JP) observed 0400 UTC 25 January 2020
Temperature: 26.0°C (79°F)
Dewpoint: 20.0°C (68°F) [RH = 70%]
Pressure (altimeter): 30.06 inches Hg (1018.0 mb)
Winds: from the ESE (120 degrees) at 15 MPH (13 knots; 6.7 m/s)
Visibility: 6 or more miles (10+ km)
Ceiling: at least 12,000 feet AGL
Clouds: few clouds at 2000 feet AGL
Weather: no significant weather observed at this time

METAR text: ROAH 250330Z 10011KT 9999 FEW020 BKN/// 26/21 Q1018 RMK 2CU020 A3008
Conditions at: ROAH (NAHA (CIV/JASDF), JP) observed 0330 UTC 25 January 2020
Temperature: 26.0°C (79°F)
Dewpoint: 21.0°C (70°F) [RH = 74%]
Pressure (altimeter): 30.06 inches Hg (1018.0 mb)
Winds: from the E (100 degrees) at 13 MPH (11 knots; 5.7 m/s)
Visibility: 6 or more miles (10+ km)
Ceiling: at least 12,000 feet AGL
Clouds: few clouds at 2000 feet AGL
Weather: no significant weather observed at this time

METAR text: ROAH 250300Z 10011G21KT 070V210 9999 FEW020 BKN/// 26/21 Q1019 RMK 1CU020 A3009
Conditions at: ROAH (NAHA (CIV/JASDF), JP) observed 0300 UTC 25 January 2020
Temperature: 26.0°C (79°F)
Dewpoint: 21.0°C (70°F) [RH = 74%]
Pressure (altimeter): 30.09 inches Hg (1019.0 mb)
Winds: from the E (100 degrees) at 13 MPH (11 knots; 5.7 m/s)
gusting to 24 MPH (21 knots; 10.8 m/s)
Visibility: 6 or more miles (10+ km)
Ceiling: at least 12,000 feet AGL
Clouds: few clouds at 2000 feet AGL
Weather: no significant weather observed at this time

METAR text: ROAH 250230Z 11010KT 9999 FEW020 SCT/// 26/20 Q1019
Conditions at: ROAH (NAHA (CIV/JASDF), JP) observed 0230 UTC 25 January 2020
Temperature: 26.0°C (79°F)
Dewpoint: 20.0°C (68°F) [RH = 70%]
Pressure (altimeter): 30.09 inches Hg (1019.0 mb)
Winds: from the ESE (110 degrees) at 12 MPH (10 knots; 5.1 m/s)
Visibility: 6 or more miles (10+ km)
Ceiling: at least 12,000 feet AGL
Clouds: few clouds at 2000 feet AGL
Weather: no significant weather observed at this time

METAR text: ROAH 250200Z 10010KT 070V140 9999 FEW020 26/20 Q1019 RMK 1CU020 A3011
Conditions at: ROAH (NAHA (CIV/JASDF), JP) observed 0200 UTC 25 January 2020
Temperature: 26.0°C (79°F)
Dewpoint: 20.0°C (68°F) [RH = 70%]
Pressure (altimeter): 30.09 inches Hg (1019.0 mb)
Winds: from the E (100 degrees) at 12 MPH (10 knots; 5.1 m/s)
Visibility: 6 or more miles (10+ km)
Ceiling: at least 12,000 feet AGL
Clouds: few clouds at 2000 feet AGL
Weather: no significant weather observed at this time

METAR text: ROAH 250130Z 10010KT 9999 FEW015 SCT070 25/21 Q1020 RMK 1CU015 3AC070 A3012
Conditions at: ROAH (NAHA (CIV/JASDF), JP) observed 0130 UTC 25 January 2020
Temperature: 25.0°C (77°F)
Dewpoint: 21.0°C (70°F) [RH = 79%]
Pressure (altimeter): 30.12 inches Hg (1020.0 mb)
Winds: from the E (100 degrees) at 12 MPH (10 knots; 5.1 m/s)
Visibility: 6 or more miles (10+ km)
Ceiling: at least 12,000 feet AGL
Clouds: few clouds at 1500 feet AGL
scattered clouds at 7000 feet AGL
Weather: no significant weather observed at this time

METAR text: ROAH 250100Z 10010KT 9999 FEW015 BKN070 25/21 Q1020 RMK 1CU015 6AC070 A3013
Conditions at: ROAH (NAHA (CIV/JASDF), JP) observed 0100 UTC 25 January 2020
Temperature: 25.0°C (77°F)
Dewpoint: 21.0°C (70°F) [RH = 79%]
Pressure (altimeter): 30.12 inches Hg (1020.0 mb)
Winds: from the E (100 degrees) at 12 MPH (10 knots; 5.1 m/s)
Visibility: 6 or more miles (10+ km)
Ceiling: 7000 feet AGL
Clouds: few clouds at 1500 feet AGL
broken clouds at 7000 feet AGL
Weather: no significant weather observed at this time

METAR text: ROAH 250030Z 10011KT 9999 FEW015 BKN070 24/21 Q1020 RMK 1CU015 6AC070 A3012
Conditions at: ROAH (NAHA (CIV/JASDF), JP) observed 0030 UTC 25 January 2020
Temperature: 24.0°C (75°F)
Dewpoint: 21.0°C (70°F) [RH = 83%]
Pressure (altimeter): 30.12 inches Hg (1020.0 mb)
Winds: from the E (100 degrees) at 13 MPH (11 knots; 5.7 m/s)
Visibility: 6 or more miles (10+ km)
Ceiling: 7000 feet AGL
Clouds: few clouds at 1500 feet AGL
broken clouds at 7000 feet AGL
Weather: no significant weather observed at this time

METAR text: ROAH 250000Z 10010KT 9999 FEW015 BKN070 BKN/// 23/21 Q1020 RMK 1CU015 5AC070 A3012
Conditions at: ROAH (NAHA (CIV/JASDF), JP) observed 0000 UTC 25 January 2020
Temperature: 23.0°C (73°F)
Dewpoint: 21.0°C (70°F) [RH = 89%]
Pressure (altimeter): 30.12 inches Hg (1020.0 mb)
Winds: from the E (100 degrees) at 12 MPH (10 knots; 5.1 m/s)
Visibility: 6 or more miles (10+ km)
Ceiling: 7000 feet AGL
Clouds: few clouds at 1500 feet AGL
broken clouds at 7000 feet AGL
Weather: no significant weather observed at this time

METAR text: ROAH 242330Z 11008KT 9999 FEW015 SCT070 BKN/// 23/21 Q1019
Conditions at: ROAH (NAHA (CIV/JASDF), JP) observed 2330 UTC 24 January 2020
Temperature: 23.0°C (73°F)
Dewpoint: 21.0°C (70°F) [RH = 89%]
Pressure (altimeter): 30.09 inches Hg (1019.0 mb)
Winds: from the ESE (110 degrees) at 9 MPH (8 knots; 4.1 m/s)
Visibility: 6 or more miles (10+ km)
Ceiling: at least 12,000 feet AGL
Clouds: few clouds at 1500 feet AGL
scattered clouds at 7000 feet AGL
Weather: no significant weather observed at this time

METAR text: ROAH 242300Z 11010KT 9999 FEW015 BKN070 22/21 Q1019 RMK 1CU015 6AC070 A3011
Conditions at: ROAH (NAHA (CIV/JASDF), JP) observed 2300 UTC 24 January 2020
Temperature: 22.0°C (72°F)
Dewpoint: 21.0°C (70°F) [RH = 94%]
Pressure (altimeter): 30.09 inches Hg (1019.0 mb)
Winds: from the ESE (110 degrees) at 12 MPH (10 knots; 5.1 m/s)
Visibility: 6 or more miles (10+ km)
Ceiling: 7000 feet AGL
Clouds: few clouds at 1500 feet AGL
broken clouds at 7000 feet AGL
Weather: no significant weather observed at this time

METAR text: ROAH 242230Z 11007KT 9999 FEW015 BKN070 22/20 Q1019 RMK 1CU015 6AC070 A3010
Conditions at: ROAH (NAHA (CIV/JASDF), JP) observed 2230 UTC 24 January 2020
Temperature: 22.0°C (72°F)
Dewpoint: 20.0°C (68°F) [RH = 88%]
Pressure (altimeter): 30.09 inches Hg (1019.0 mb)
Winds: from the ESE (110 degrees) at 8 MPH (7 knots; 3.6 m/s)
Visibility: 6 or more miles (10+ km)
Ceiling: 7000 feet AGL
Clouds: few clouds at 1500 feet AGL
broken clouds at 7000 feet AGL
Weather: no significant weather observed at this time

METAR text: ROAH 242200Z 11009KT 9999 FEW015 BKN070 22/20 Q1019 RMK 1CU015 6AC070 A3010
Conditions at: ROAH (NAHA (CIV/JASDF), JP) observed 2200 UTC 24 January 2020
Temperature: 22.0°C (72°F)
Dewpoint: 20.0°C (68°F) [RH = 88%]
Pressure (altimeter): 30.09 inches Hg (1019.0 mb)
Winds: from the ESE (110 degrees) at 10 MPH (9 knots; 4.6 m/s)
Visibility: 6 or more miles (10+ km)
Ceiling: 7000 feet AGL
Clouds: few clouds at 1500 feet AGL
broken clouds at 7000 feet AGL
Weather: no significant weather observed at this time

METAR text: ROAH 242130Z 10011KT 9999 FEW007 BKN070 22/20 Q1019 RMK 1ST007 6AC070 A3009
Conditions at: ROAH (NAHA (CIV/JASDF), JP) observed 2130 UTC 24 January 2020
Temperature: 22.0°C (72°F)
Dewpoint: 20.0°C (68°F) [RH = 88%]
Pressure (altimeter): 30.09 inches Hg (1019.0 mb)
Winds: from the E (100 degrees) at 13 MPH (11 knots; 5.7 m/s)
Visibility: 6 or more miles (10+ km)
Ceiling: 7000 feet AGL
Clouds: few clouds at 700 feet AGL
broken clouds at 7000 feet AGL
Weather: no significant weather observed at this time

Forecast for: AMD
Text: TAF AMD ROAH 260821Z 2608/2712 19010KT 9999 FEW008 BKN015
Forecast period: 0800 UTC 26 January 2020 to 0000 UTC 27 January 2020
Forecast type: FROM: standard forecast or significant change
Winds: from the S (190 degrees) at 12 MPH (10 knots; 5.1 m/s)
Visibility: 6 or more miles 10+ km)
Ceiling: 1500 feet AGL
Clouds: few clouds at 800 feet AGL
broken clouds at 1500 feet AGL
Weather: no significant weather forecast for this period
Text: TEMPO 2608/2615 FEW004 BKN008
Forecast period: 0800 to 1500 UTC 26 January 2020
Forecast type: TEMPORARY: The following changes expected for less than half the time period
Visibility: missing
Ceiling: 800 feet AGL
Clouds: few clouds at 400 feet AGL
broken clouds at 800 feet AGL
Weather: no significant weather forecast for this period
Text: TEMPO 2621/2700 3000 TSRA SCT005 BKN012 SCT020CB
Forecast period: 2100 UTC 26 January 2020 to 0000 UTC 27 January 2020
Forecast type: TEMPORARY: The following changes expected for less than half the time period
Visibility: 1.86 miles (2.99 km)
Ceiling: 1200 feet AGL
Clouds: scattered clouds at 500 feet AGL
broken clouds at 1200 feet AGL
scattered clouds at 2000 feet AGL
Weather: TSRA  (rain associated with thunderstorm(s))
Text: BECMG 2700/2703 32022KT
Forecast period: 0000 to 1200 UTC 27 January 2020
Forecast type: BECOMING: Conditions expected to become as follows by 0300 UTC 27 January 2020
Winds: from the NW (320 degrees) at 25 MPH (22 knots; 11.3 m/s)
Visibility: 6 or more miles 10+ km)
Ceiling: 1500 feet AGL
Clouds: few clouds at 800 feet AGL
broken clouds at 1500 feet AGL
Weather: no significant weather forecast for this period
Text: TEMPO 2703/2712 32024G35KT
Forecast period: 0300 to 1200 UTC 27 January 2020
Forecast type: TEMPORARY: The following changes expected for less than half the time period
Winds: from the NW (320 degrees) at 28 MPH (24 knots; 12.3 m/s)
gusting to 40 MPH (35 knots; 18.0 m/s)
Visibility: missing
Ceiling: unknown
Clouds: missing
Weather: no significant weather forecast for this period